createdAt,value
2019-04-21T00:02:01.785Z,5.99
2019-04-21T00:07:28.101Z,5.93
2019-04-21T00:12:28.396Z,5.84
2019-04-21T00:17:21.109Z,5.83
2019-04-21T00:22:37.756Z,5.75
2019-04-21T00:27:46.475Z,5.65
2019-04-21T00:32:50.245Z,5.49
2019-04-21T00:38:00.343Z,5.42
2019-04-21T00:43:07.627Z,5.42
2019-04-21T00:48:25.531Z,5.44
2019-04-21T00:53:32.914Z,5.49
2019-04-21T00:58:35.921Z,5.34
2019-04-21T01:03:46.968Z,5.25
2019-04-21T01:08:47.313Z,5.04
2019-04-21T01:13:59.520Z,4.89
2019-04-21T01:19:02.175Z,4.72
2019-04-21T01:23:48.618Z,4.62
2019-04-21T01:29:11.960Z,4.55
2019-04-21T01:34:26.195Z,4.42
2019-04-21T01:39:29.691Z,4.39
2019-04-21T01:44:36.919Z,4.28
2019-04-21T01:49:29.586Z,4.19
2019-04-21T01:54:48.137Z,4.09
2019-04-21T01:59:42.492Z,4.01
2019-04-21T02:05:03.193Z,3.95
2019-04-21T02:10:04.801Z,3.87
2019-04-21T02:15:17.179Z,3.79
2019-04-21T02:20:23.004Z,3.68
2019-04-21T02:25:44.323Z,3.60
2019-04-21T02:31:18.088Z,3.58
2019-04-21T02:36:31.008Z,3.47
2019-04-21T02:41:43.537Z,3.35
2019-04-21T02:46:45.406Z,3.33
2019-04-21T02:52:20.141Z,3.38
2019-04-21T03:08:00.770Z,3.06
2019-04-21T03:18:30.259Z,2.99
2019-04-21T03:28:43.622Z,2.93
2019-04-21T03:39:15.880Z,2.78
2019-04-21T03:44:22.612Z,2.67
2019-04-21T03:49:45.517Z,2.68
2019-04-21T04:06:20.688Z,2.55
2019-04-21T04:11:30.080Z,2.66
2019-04-21T04:16:37.525Z,2.71
2019-04-21T04:21:47.670Z,2.78
2019-04-21T04:26:57.805Z,2.88
2019-04-21T04:42:46.334Z,3.10
2019-04-21T04:47:42.610Z,3.25
2019-04-21T04:53:12.782Z,3.42
2019-04-21T04:58:19.051Z,3.63
2019-04-21T05:03:24.386Z,3.85
2019-04-21T05:08:49.342Z,4.18
2019-04-21T05:19:30.487Z,12.95
2019-04-21T05:24:23.080Z,17.56
2019-04-21T05:29:49.253Z,20.83
2019-04-21T05:34:56.526Z,21.39
2019-04-21T05:40:04.449Z,23.83
2019-04-21T05:45:17.417Z,24.62
2019-04-21T05:56:17.336Z,25.77
2019-04-21T06:17:04.424Z,23.89
2019-04-21T06:27:49.453Z,16.72
2019-04-21T06:33:19.634Z,14.96
2019-04-21T06:38:16.606Z,13.96
2019-04-21T06:43:56.601Z,13.37
2019-04-21T06:48:34.012Z,13.49
2019-04-21T06:53:52.536Z,13.59
2019-04-21T06:59:01.330Z,13.61
2019-04-21T07:04:31.513Z,13.73
2019-04-21T07:15:06.592Z,13.80
2019-04-21T07:20:17.197Z,13.92
2019-04-21T07:25:32.653Z,14.13
2019-04-21T07:30:48.588Z,14.23
2019-04-21T07:35:55.704Z,14.42
2019-04-21T07:41:02.293Z,14.55
2019-04-21T07:46:17.219Z,14.76
2019-04-21T07:51:38.745Z,14.58
2019-04-21T07:56:32.974Z,14.87
2019-04-21T08:02:01.193Z,15.03
2019-04-21T08:07:21.834Z,15.24
2019-04-21T08:12:27.593Z,15.40
2019-04-21T08:17:41.387Z,15.40
2019-04-21T08:28:06.782Z,16.08
2019-04-21T08:33:26.254Z,16.59
2019-04-21T08:38:31.470Z,16.61
2019-04-21T08:48:55.328Z,17.36
2019-04-21T08:54:11.888Z,17.48
2019-04-21T08:59:28.935Z,17.28
2019-04-21T09:04:33.434Z,17.67
2019-04-21T09:09:46.772Z,18.07
2019-04-21T09:15:19.085Z,20.71
2019-04-21T09:20:33.878Z,23.22
2019-04-21T09:25:49.520Z,24.06
2019-04-21T09:30:43.331Z,23.19
2019-04-21T09:35:49.203Z,23.24
2019-04-21T09:40:49.735Z,23.36
2019-04-21T09:45:52.451Z,24.61
2019-04-21T09:50:59.536Z,23.78
2019-04-21T09:56:08.313Z,23.81
2019-04-21T10:01:19.734Z,24.28
2019-04-21T10:06:17.431Z,24.36
2019-04-21T10:11:33.292Z,24.96
2019-04-21T10:16:40.521Z,25.92
2019-04-21T10:21:47.850Z,26.34
2019-04-21T10:26:53.372Z,25.61
2019-04-21T10:31:57.742Z,26.09
2019-04-21T10:37:02.829Z,27.05
2019-04-21T10:42:07.248Z,25.34
2019-04-21T10:47:11.411Z,24.17
2019-04-21T10:52:15.597Z,24.07
2019-04-21T10:57:20.097Z,22.53
2019-04-21T11:02:25.091Z,23.71
2019-04-21T11:07:34.438Z,23.45
2019-04-21T11:12:38.138Z,24.03
2019-04-21T11:17:43.584Z,25.03
2019-04-21T11:22:49.219Z,25.48
2019-04-21T11:27:55.227Z,22.72
2019-04-21T11:32:59.361Z,22.19
2019-04-21T11:38:10.702Z,22.54
2019-04-21T11:43:09.864Z,23.96
2019-04-21T11:48:14.398Z,24.85
2019-04-21T11:53:21.050Z,23.87
2019-04-21T11:58:26.259Z,22.33
2019-04-21T12:03:31.688Z,22.43
2019-04-21T12:08:42.346Z,23.43
2019-04-21T12:13:42.361Z,23.90
2019-04-21T12:18:47.180Z,23.17
2019-04-21T12:23:52.368Z,22.76
2019-04-21T12:28:57.623Z,23.27
2019-04-21T12:34:03.645Z,23.21
2019-04-21T12:39:10.445Z,24.18
2019-04-21T12:44:14.873Z,24.36
2019-04-21T12:49:20.086Z,22.98
2019-04-21T12:54:25.898Z,23.57
2019-04-21T12:59:32.309Z,24.06
2019-04-21T13:04:35.988Z,24.48
2019-04-21T13:09:42.086Z,24.50
2019-04-21T13:14:47.396Z,23.56
2019-04-21T13:19:51.802Z,23.03
2019-04-21T13:24:55.943Z,22.96
2019-04-21T13:30:02.215Z,23.44
2019-04-21T13:35:06.732Z,23.84
2019-04-21T13:40:29.242Z,23.92
2019-04-21T13:45:18.347Z,23.57
2019-04-21T13:50:23.680Z,24.58
2019-04-21T13:55:27.891Z,24.14
2019-04-21T14:00:31.949Z,23.12
2019-04-21T14:05:36.271Z,23.47
2019-04-21T14:10:41.712Z,23.78
2019-04-21T14:15:48.340Z,24.27
2019-04-21T14:21:05.053Z,24.58
2019-04-21T14:26:06.505Z,23.77
2019-04-21T14:31:10.763Z,23.58
2019-04-21T14:36:14.876Z,24.07
2019-04-21T14:41:19.999Z,23.71
2019-04-21T14:46:24.930Z,23.82
2019-04-21T14:51:29.445Z,23.82
2019-04-21T14:56:35.493Z,24.13
2019-04-21T15:01:40.016Z,24.22
2019-04-21T15:06:45.511Z,24.21
2019-04-21T15:11:49.965Z,24.04
2019-04-21T15:16:54.579Z,23.70
2019-04-21T15:21:58.777Z,22.47
2019-04-21T15:27:03.135Z,23.07
2019-04-21T15:32:08.390Z,23.72
2019-04-21T15:37:13.715Z,24.03
2019-04-21T15:42:18.642Z,24.10
2019-04-21T15:47:23.988Z,23.25
2019-04-21T15:52:31.778Z,23.60
2019-04-21T15:57:37.729Z,23.41
2019-04-21T16:02:42.590Z,23.20
2019-04-21T16:07:47.955Z,23.66
2019-04-21T16:12:55.994Z,23.55
2019-04-21T16:18:03.600Z,23.32
2019-04-21T16:23:08.579Z,23.05
2019-04-21T16:28:13.394Z,23.16
2019-04-21T16:33:18.761Z,23.08
2019-04-21T16:38:23.720Z,22.90
2019-04-21T16:43:29.137Z,22.75
2019-04-21T16:48:33.841Z,22.88
2019-04-21T16:53:38.063Z,22.68
2019-04-21T16:58:43.018Z,22.50
2019-04-21T17:03:48.578Z,22.39
2019-04-21T17:08:54.668Z,22.11
2019-04-21T17:14:00.479Z,21.45
2019-04-21T17:19:14.509Z,21.19
2019-04-21T17:24:12.706Z,20.77
2019-04-21T17:29:18.655Z,20.43
2019-04-21T17:34:27.751Z,20.12
2019-04-21T17:39:29.309Z,19.76
2019-04-21T17:44:33.549Z,19.50
2019-04-21T17:49:39.159Z,19.12
2019-04-21T17:54:51.173Z,18.86
2019-04-21T18:00:23.959Z,18.56
2019-04-21T18:05:27.498Z,18.21
2019-04-21T18:10:33.857Z,17.77
2019-04-21T18:15:37.184Z,17.40
2019-04-21T18:20:25.897Z,17.05
2019-04-21T18:25:44.180Z,16.67
2019-04-21T18:30:46.887Z,16.09
2019-04-21T18:35:54.350Z,15.67
2019-04-21T18:40:58.362Z,15.75
2019-04-21T18:46:25.887Z,15.52
2019-04-21T18:51:13.909Z,15.05
2019-04-21T18:56:18.671Z,14.51
2019-04-21T19:01:27.301Z,14.26
2019-04-21T19:06:46.864Z,14.44
2019-04-21T19:11:52.396Z,14.57
2019-04-21T19:17:11.297Z,14.67
2019-04-21T19:22:06.301Z,14.65
2019-04-21T19:27:13.149Z,14.60
2019-04-21T19:32:19.831Z,14.34
2019-04-21T19:37:11.474Z,13.88
2019-04-21T19:42:28.436Z,13.45
2019-04-21T19:47:41.689Z,13.15
2019-04-21T19:52:34.568Z,13.11
2019-04-21T19:57:31.343Z,13.00
2019-04-21T20:02:36.462Z,13.06
2019-04-21T20:08:02.700Z,13.01
2019-04-21T20:13:07.376Z,12.87
2019-04-21T20:18:08.678Z,12.75
2019-04-21T20:23:14.984Z,12.47
2019-04-21T20:28:22.176Z,12.10
2019-04-21T20:38:35.930Z,11.60
2019-04-21T20:43:53.810Z,11.41
2019-04-21T20:48:51.305Z,11.15
2019-04-21T20:53:59.125Z,11.01
2019-04-21T20:59:07.775Z,10.78
2019-04-21T21:04:13.703Z,10.61
2019-04-21T21:09:18.232Z,10.42
2019-04-21T21:14:33.545Z,10.21
2019-04-21T21:19:39.977Z,10.48
2019-04-21T21:24:47.422Z,10.65
2019-04-21T21:29:51.574Z,11.81
2019-04-21T21:34:57.010Z,12.46
2019-04-21T21:40:22.199Z,12.54
2019-04-21T21:45:01.238Z,12.51
2019-04-21T21:50:11.570Z,12.53
2019-04-21T21:55:07.621Z,12.51
2019-04-21T22:00:15.365Z,12.18
2019-04-21T22:05:24.281Z,11.84
2019-04-21T22:10:27.286Z,11.78
2019-04-21T22:15:33.671Z,11.47
2019-04-21T22:20:53.776Z,11.51
2019-04-21T22:25:45.375Z,11.56
2019-04-21T22:30:51.824Z,11.18
2019-04-21T22:36:02.835Z,10.80
2019-04-21T22:41:14.139Z,10.50
2019-04-21T22:46:07.653Z,10.19
2019-04-21T22:51:20.579Z,9.90
2019-04-21T22:56:25.561Z,9.57
2019-04-21T23:01:33.685Z,9.60
2019-04-21T23:06:34.348Z,9.57
2019-04-21T23:11:42.615Z,9.73
2019-04-21T23:16:45.598Z,10.01
2019-04-21T23:22:11.487Z,10.11
2019-04-21T23:27:11.770Z,10.12
2019-04-21T23:32:22.405Z,10.34
2019-04-21T23:37:15.032Z,10.31
2019-04-21T23:42:23.687Z,10.30
2019-04-21T23:47:34.574Z,10.04
2019-04-21T23:52:29.766Z,10.04
2019-04-21T23:57:40.840Z,10.11
